createdAt,value
2022-10-22T00:01:00.831Z,23.03
2022-10-22T00:03:28.654Z,23.70
2022-10-22T00:05:56.598Z,23.20
2022-10-22T00:08:24.488Z,24.07
2022-10-22T00:10:52.878Z,24.07
2022-10-22T00:13:22.226Z,23.13
2022-10-22T00:15:50.079Z,23.30
2022-10-22T00:18:17.909Z,23.83
2022-10-22T00:20:45.743Z,22.93
2022-10-22T00:23:13.642Z,22.80
2022-10-22T00:25:41.475Z,22.70
2022-10-22T00:28:09.324Z,23.90
2022-10-22T00:30:38.607Z,23.43
2022-10-22T00:33:06.409Z,22.43
2022-10-22T00:35:34.556Z,22.80
2022-10-22T00:38:02.507Z,23.07
2022-10-22T00:40:30.393Z,23.33
2022-10-22T00:42:58.276Z,24.07
2022-10-22T00:45:27.058Z,22.87
2022-10-22T00:48:06.154Z,23.73
2022-10-22T00:50:36.892Z,23.97
2022-10-22T00:53:09.623Z,23.43
2022-10-22T00:55:38.369Z,22.23
2022-10-22T00:58:06.287Z,22.80
2022-10-22T01:00:34.266Z,23.10
2022-10-22T01:03:03.726Z,24.37
2022-10-22T01:05:40.476Z,23.90
2022-10-22T01:08:15.858Z,23.47
2022-10-22T01:10:58.384Z,23.53
2022-10-22T01:13:38.006Z,24.30
2022-10-22T01:16:12.222Z,23.50
2022-10-22T01:18:52.219Z,22.13
2022-10-22T01:21:27.856Z,23.83
2022-10-22T01:24:20.737Z,22.50
2022-10-22T01:27:01.867Z,24.47
2022-10-22T01:29:35.487Z,25.47
2022-10-22T01:32:08.528Z,24.37
2022-10-22T01:34:40.255Z,25.43
2022-10-22T01:37:09.315Z,23.87
2022-10-22T01:39:39.610Z,24.80
2022-10-22T01:42:07.821Z,25.53
2022-10-22T01:44:38.126Z,24.20
2022-10-22T01:47:22.371Z,25.60
2022-10-22T01:50:03.259Z,25.03
2022-10-22T01:52:45.958Z,24.23
2022-10-22T01:55:23.621Z,24.47
2022-10-22T01:58:01.867Z,24.90
2022-10-22T02:00:31.198Z,24.53
2022-10-22T02:03:05.133Z,26.20
2022-10-22T02:05:37.887Z,25.97
2022-10-22T02:08:10.109Z,25.77
2022-10-22T02:10:39.599Z,25.83
2022-10-22T02:13:11.048Z,25.30
2022-10-22T02:15:41.219Z,25.40
2022-10-22T02:18:10.970Z,25.77
2022-10-22T02:20:42.466Z,26.10
2022-10-22T02:23:11.408Z,25.00
2022-10-22T02:25:42.830Z,24.87
2022-10-22T02:28:18.000Z,26.67
2022-10-22T02:30:53.996Z,25.40
2022-10-22T02:33:25.643Z,27.07
2022-10-22T02:35:54.855Z,25.87
2022-10-22T02:38:25.111Z,24.20
2022-10-22T02:40:53.519Z,25.10
2022-10-22T02:43:21.385Z,25.20
2022-10-22T02:45:50.636Z,26.33
2022-10-22T02:48:18.688Z,25.40
2022-10-22T02:50:46.620Z,26.23
2022-10-22T02:53:14.496Z,26.17
2022-10-22T02:55:42.393Z,26.20
2022-10-22T02:58:11.053Z,24.70
2022-10-22T03:00:38.930Z,24.67
2022-10-22T03:03:08.154Z,25.20
2022-10-22T03:05:37.504Z,26.07
2022-10-22T03:08:05.689Z,26.43
2022-10-22T03:10:33.533Z,25.17
2022-10-22T03:13:01.768Z,26.07
2022-10-22T03:15:29.652Z,25.80
2022-10-22T03:17:57.469Z,24.87
2022-10-22T03:20:26.758Z,26.33
2022-10-22T03:22:54.700Z,26.60
2022-10-22T03:25:25.299Z,25.17
2022-10-22T03:27:54.737Z,25.60
2022-10-22T03:30:23.156Z,27.07
2022-10-22T03:32:50.990Z,26.23
2022-10-22T03:35:18.867Z,29.67
2022-10-22T03:37:48.272Z,28.87
2022-10-22T03:40:16.552Z,26.73
2022-10-22T03:42:44.795Z,26.97
2022-10-22T03:45:13.306Z,28.83
2022-10-22T03:47:41.407Z,26.50
2022-10-22T03:50:10.675Z,28.50
2022-10-22T03:52:40.162Z,28.97
2022-10-22T03:55:10.468Z,28.10
2022-10-22T03:57:38.609Z,25.60
2022-10-22T04:00:08.177Z,25.73
2022-10-22T04:02:36.056Z,25.50
2022-10-22T04:05:04.011Z,24.20
2022-10-22T04:07:31.903Z,25.73
2022-10-22T04:09:59.796Z,27.80
2022-10-22T04:12:29.051Z,27.93
2022-10-22T04:14:56.872Z,27.30
2022-10-22T04:17:24.897Z,25.77
2022-10-22T04:19:52.703Z,25.97
2022-10-22T04:22:20.544Z,25.67
2022-10-22T04:24:48.424Z,25.83
2022-10-22T04:27:16.269Z,27.00
2022-10-22T04:29:45.524Z,25.40
2022-10-22T04:32:13.348Z,26.30
2022-10-22T04:34:41.177Z,25.57
2022-10-22T04:37:09.025Z,26.87
2022-10-22T04:39:36.863Z,25.83
2022-10-22T04:42:05.056Z,26.23
2022-10-22T04:44:33.092Z,25.20
2022-10-22T04:47:02.289Z,25.70
2022-10-22T04:49:30.144Z,29.33
2022-10-22T04:51:58.007Z,29.07
2022-10-22T04:54:29.020Z,31.07
2022-10-22T04:57:00.048Z,28.53
2022-10-22T04:59:27.939Z,29.63
2022-10-22T05:01:55.780Z,28.80
2022-10-22T05:04:25.017Z,27.57
2022-10-22T05:06:52.875Z,27.70
2022-10-22T05:09:21.780Z,27.77
2022-10-22T05:11:51.558Z,28.20
2022-10-22T05:14:21.299Z,27.33
2022-10-22T05:16:49.560Z,26.93
2022-10-22T05:19:19.730Z,26.73
2022-10-22T05:21:49.000Z,27.10
2022-10-22T05:24:16.942Z,25.17
2022-10-22T05:26:44.783Z,25.90
2022-10-22T05:29:12.728Z,23.93
2022-10-22T05:31:41.141Z,33.47
2022-10-22T05:34:09.079Z,27.17
2022-10-22T05:36:37.305Z,23.33
2022-10-22T05:39:07.392Z,24.27
2022-10-22T05:41:36.755Z,23.33
2022-10-22T05:44:05.822Z,24.23
2022-10-22T05:46:36.324Z,23.73
2022-10-22T05:49:06.696Z,23.70
2022-10-22T05:51:37.380Z,22.97
2022-10-22T05:54:11.087Z,22.57
2022-10-22T05:56:39.696Z,24.07
2022-10-22T05:59:07.534Z,23.80
2022-10-22T06:01:36.381Z,23.87
2022-10-22T06:04:06.160Z,23.57
2022-10-22T06:06:36.575Z,24.33
2022-10-22T06:09:09.009Z,24.47
2022-10-22T06:11:36.946Z,25.10
2022-10-22T06:14:05.569Z,25.83
2022-10-22T06:16:33.716Z,25.17
2022-10-22T06:19:02.983Z,25.53
2022-10-22T06:21:31.611Z,25.53
2022-10-22T06:24:00.782Z,26.50
2022-10-22T06:26:30.426Z,25.73
2022-10-22T06:28:59.095Z,26.77
2022-10-22T06:31:28.351Z,25.47
2022-10-22T06:33:58.014Z,25.50
2022-10-22T06:36:26.231Z,26.77
2022-10-22T06:38:54.812Z,26.17
2022-10-22T06:41:27.054Z,27.33
2022-10-22T06:44:01.195Z,27.63
2022-10-22T06:46:32.371Z,27.73
2022-10-22T06:49:04.067Z,27.20
2022-10-22T06:51:33.195Z,29.03
2022-10-22T06:54:02.917Z,28.37
2022-10-22T06:56:32.835Z,28.63
2022-10-22T06:59:04.408Z,28.13
2022-10-22T07:01:35.690Z,27.67
2022-10-22T07:04:05.823Z,28.53
2022-10-22T07:06:36.518Z,26.57
2022-10-22T07:09:07.220Z,27.63
2022-10-22T07:11:42.448Z,28.20
2022-10-22T07:14:15.670Z,29.00
2022-10-22T07:16:47.323Z,27.27
2022-10-22T07:19:17.126Z,28.00
2022-10-22T07:21:46.468Z,25.60
2022-10-22T07:24:17.821Z,24.93
2022-10-22T07:26:47.730Z,25.20
2022-10-22T07:29:19.338Z,24.93
2022-10-22T07:31:48.851Z,24.97
2022-10-22T07:34:17.041Z,25.07
2022-10-22T07:36:45.047Z,24.92
2022-10-22T07:39:13.048Z,26.30
2022-10-22T07:41:40.931Z,27.02
2022-10-22T07:44:08.800Z,25.75
2022-10-22T07:46:38.111Z,27.08
2022-10-22T07:49:05.989Z,26.17
2022-10-22T07:51:33.875Z,26.58
2022-10-22T07:54:01.744Z,26.50
2022-10-22T07:56:29.591Z,26.55
2022-10-22T07:58:57.531Z,27.58
2022-10-22T08:01:25.471Z,27.38
2022-10-22T08:03:54.796Z,35.42
2022-10-22T08:06:23.073Z,27.38
2022-10-22T08:08:51.003Z,29.02
2022-10-22T08:11:18.935Z,26.90
2022-10-22T08:13:46.791Z,25.85
2022-10-22T08:16:16.044Z,25.55
2022-10-22T08:18:44.196Z,26.83
2022-10-22T08:21:14.112Z,25.75
2022-10-22T08:23:42.029Z,26.38
2022-10-22T08:26:09.972Z,31.98
2022-10-22T08:28:37.997Z,28.60
2022-10-22T08:31:06.314Z,26.00
2022-10-22T08:33:34.202Z,26.85
2022-10-22T08:36:02.117Z,25.30
2022-10-22T08:38:31.682Z,26.15
2022-10-22T08:41:08.919Z,26.88
2022-10-22T08:44:10.872Z,25.73
2022-10-22T08:46:55.373Z,25.42
2022-10-22T08:49:27.209Z,25.85
2022-10-22T08:51:57.135Z,25.25
2022-10-22T08:54:33.344Z,21.38
2022-10-22T08:57:19.288Z,21.45
2022-10-22T08:59:49.186Z,22.08
2022-10-22T09:02:29.727Z,20.42
2022-10-22T09:05:11.498Z,20.77
2022-10-22T09:07:49.984Z,19.55
2022-10-22T09:10:20.556Z,18.75
2022-10-22T09:12:49.199Z,18.55
2022-10-22T09:15:18.724Z,18.83
2022-10-22T09:18:07.125Z,18.23
2022-10-22T09:20:43.445Z,18.33
2022-10-22T09:23:25.707Z,18.27
2022-10-22T09:25:55.487Z,19.60
2022-10-22T09:28:23.401Z,18.08
2022-10-22T09:30:51.453Z,18.27
2022-10-22T09:33:24.737Z,16.77
2022-10-22T09:35:54.860Z,17.08
2022-10-22T09:38:26.781Z,17.83
2022-10-22T09:40:58.366Z,17.08
2022-10-22T09:43:26.567Z,17.33
2022-10-22T09:45:58.634Z,17.63
2022-10-22T09:48:32.193Z,16.70
2022-10-22T09:51:05.552Z,15.63
2022-10-22T09:53:38.972Z,16.60
2022-10-22T09:56:17.309Z,17.40
2022-10-22T09:58:49.294Z,16.75
2022-10-22T10:01:20.969Z,17.98
2022-10-22T10:03:50.255Z,17.55
2022-10-22T10:06:20.888Z,16.83
2022-10-22T10:08:49.461Z,18.65
2022-10-22T10:11:29.677Z,17.95
2022-10-22T10:14:09.031Z,17.95
2022-10-22T10:16:57.830Z,19.92
2022-10-22T10:19:44.433Z,18.40
2022-10-22T10:22:25.334Z,16.13
2022-10-22T10:25:21.122Z,16.63
2022-10-22T10:27:57.913Z,15.95
2022-10-22T10:30:26.152Z,15.82
2022-10-22T10:33:11.584Z,16.58
2022-10-22T10:35:50.182Z,15.82
2022-10-22T10:38:39.512Z,17.60
2022-10-22T10:41:19.919Z,16.40
2022-10-22T10:44:04.688Z,16.15
2022-10-22T10:46:39.404Z,15.27
2022-10-22T10:49:11.157Z,15.68
2022-10-22T10:51:47.475Z,15.88
2022-10-22T10:54:27.477Z,15.60
2022-10-22T10:56:59.215Z,15.75
2022-10-22T10:59:43.949Z,17.98
2022-10-22T11:02:37.949Z,15.60
2022-10-22T11:05:22.358Z,15.10
2022-10-22T11:07:56.576Z,15.82
2022-10-22T11:10:30.395Z,16.52
2022-10-22T11:13:05.680Z,15.75
2022-10-22T11:15:38.123Z,16.35
2022-10-22T11:18:15.901Z,15.95
2022-10-22T11:21:04.565Z,16.25
2022-10-22T11:23:39.863Z,15.98
2022-10-22T11:26:14.187Z,15.05
2022-10-22T11:28:46.650Z,16.20
2022-10-22T11:31:18.211Z,15.13
2022-10-22T11:33:57.331Z,14.98
2022-10-22T11:36:34.358Z,15.02
2022-10-22T11:39:05.115Z,14.88
2022-10-22T11:41:35.345Z,14.57
2022-10-22T11:44:12.657Z,14.48
2022-10-22T11:46:46.593Z,13.93
2022-10-22T11:49:23.544Z,14.60
2022-10-22T11:51:52.499Z,13.32
2022-10-22T11:54:33.041Z,12.85
2022-10-22T11:57:21.221Z,13.60
2022-10-22T11:59:52.227Z,14.10
2022-10-22T12:02:41.149Z,14.27
2022-10-22T12:05:37.512Z,13.18
2022-10-22T12:08:17.707Z,13.70
2022-10-22T12:10:59.598Z,13.02
2022-10-22T12:13:29.741Z,12.35
2022-10-22T12:16:00.136Z,12.60
2022-10-22T12:18:36.401Z,12.63
2022-10-22T12:21:04.691Z,12.77
2022-10-22T12:23:35.568Z,12.35
2022-10-22T12:26:05.509Z,12.15
2022-10-22T12:28:40.791Z,13.57
2022-10-22T12:31:16.688Z,12.70
2022-10-22T12:33:45.922Z,11.75
2022-10-22T12:36:18.280Z,12.27
2022-10-22T12:38:48.241Z,12.77
2022-10-22T12:41:16.192Z,11.77
2022-10-22T12:43:44.028Z,11.60
2022-10-22T12:46:16.311Z,11.82
2022-10-22T12:48:47.255Z,12.55
2022-10-22T12:51:19.530Z,12.07
2022-10-22T12:53:49.214Z,11.63
2022-10-22T12:56:22.149Z,12.32
2022-10-22T12:58:56.366Z,12.93
2022-10-22T13:01:27.882Z,12.38
2022-10-22T13:04:18.570Z,12.05
2022-10-22T13:06:49.162Z,11.20
2022-10-22T13:09:23.809Z,11.00
2022-10-22T13:11:58.226Z,11.02
2022-10-22T13:14:32.433Z,10.38
2022-10-22T13:17:08.505Z,11.15
2022-10-22T13:19:50.080Z,11.73
2022-10-22T13:22:31.057Z,10.80
2022-10-22T13:25:00.341Z,11.18
2022-10-22T13:27:29.359Z,9.80
2022-10-22T13:29:59.993Z,10.98
2022-10-22T13:32:31.625Z,9.95
2022-10-22T13:35:02.424Z,11.30
2022-10-22T13:37:34.035Z,10.63
2022-10-22T13:40:01.877Z,10.80
2022-10-22T13:42:29.713Z,10.30
2022-10-22T13:44:57.575Z,11.85
2022-10-22T13:47:27.762Z,10.98
2022-10-22T13:49:58.588Z,11.70
2022-10-22T13:52:35.359Z,10.98
2022-10-22T13:55:03.346Z,11.07
2022-10-22T13:57:31.183Z,10.70
2022-10-22T13:59:59.056Z,9.77
2022-10-22T14:02:28.191Z,9.82
2022-10-22T14:04:56.660Z,10.20
2022-10-22T14:07:24.501Z,11.55
2022-10-22T14:09:53.712Z,10.13
2022-10-22T14:12:21.576Z,10.60
2022-10-22T14:14:49.453Z,11.00
2022-10-22T14:17:19.186Z,11.05
2022-10-22T14:19:49.457Z,10.93
2022-10-22T14:22:18.487Z,10.45
2022-10-22T14:24:46.820Z,11.20
2022-10-22T14:27:16.787Z,11.55
2022-10-22T14:29:44.684Z,11.13
2022-10-22T14:32:15.281Z,11.15
2022-10-22T14:34:43.149Z,11.73
2022-10-22T14:37:18.734Z,11.32
2022-10-22T14:39:51.921Z,10.50
2022-10-22T14:42:21.354Z,10.60
2022-10-22T14:44:49.203Z,10.15
2022-10-22T14:47:17.051Z,11.07
2022-10-22T14:49:44.897Z,10.93
2022-10-22T14:52:14.839Z,9.95
2022-10-22T14:54:42.984Z,10.80
2022-10-22T14:57:11.437Z,12.15
2022-10-22T14:59:40.788Z,12.73
2022-10-22T15:02:12.319Z,12.90
2022-10-22T15:04:40.272Z,12.15
2022-10-22T15:07:08.197Z,11.57
2022-10-22T15:09:36.016Z,12.15
2022-10-22T15:12:03.955Z,12.10
2022-10-22T15:14:31.789Z,11.77
2022-10-22T15:17:01.193Z,12.07
2022-10-22T15:19:30.442Z,12.37
2022-10-22T15:21:58.283Z,13.20
2022-10-22T15:24:26.139Z,13.93
2022-10-22T15:26:54.083Z,29.03
2022-10-22T15:29:21.958Z,20.00
2022-10-22T15:31:51.571Z,13.47
2022-10-22T15:34:22.793Z,12.40
2022-10-22T15:36:50.717Z,12.37
2022-10-22T15:39:18.808Z,13.93
2022-10-22T15:41:46.946Z,13.17
2022-10-22T15:44:17.276Z,15.03
2022-10-22T15:46:45.143Z,14.67
2022-10-22T15:49:13.729Z,15.93
2022-10-22T15:51:42.922Z,14.20
2022-10-22T15:54:14.818Z,15.83
2022-10-22T15:56:43.504Z,17.80
2022-10-22T15:59:12.831Z,17.50
2022-10-22T16:01:41.255Z,18.23
2022-10-22T16:04:09.149Z,18.47
2022-10-22T16:06:40.099Z,18.53
2022-10-22T16:09:11.689Z,26.53
2022-10-22T16:11:41.713Z,21.97
2022-10-22T16:14:11.612Z,26.33
2022-10-22T16:16:43.416Z,22.30
2022-10-22T16:19:12.084Z,22.57
2022-10-22T16:21:40.091Z,39.47
2022-10-22T16:24:10.811Z,29.83
2022-10-22T16:26:38.638Z,21.93
2022-10-22T16:29:07.244Z,19.40
2022-10-22T16:31:35.565Z,19.03
2022-10-22T16:34:03.406Z,19.87
2022-10-22T16:36:31.252Z,20.13
2022-10-22T16:38:59.174Z,20.17
2022-10-22T16:41:34.912Z,20.60
2022-10-22T16:44:04.463Z,21.00
2022-10-22T16:46:33.473Z,20.33
2022-10-22T16:49:01.567Z,19.50
2022-10-22T16:51:29.887Z,18.53
2022-10-22T16:53:58.561Z,20.17
2022-10-22T16:56:28.187Z,20.53
2022-10-22T16:58:58.477Z,21.40
2022-10-22T17:01:29.256Z,21.90
2022-10-22T17:03:57.565Z,22.03
2022-10-22T17:06:26.046Z,22.33
2022-10-22T17:08:54.328Z,22.37
2022-10-22T17:11:23.764Z,21.33
2022-10-22T17:13:54.770Z,22.67
2022-10-22T17:16:24.598Z,24.33
2022-10-22T17:18:53.805Z,24.87
2022-10-22T17:21:22.468Z,25.83
2022-10-22T17:23:54.691Z,25.53
2022-10-22T17:26:23.764Z,25.93
2022-10-22T17:28:53.111Z,23.60
2022-10-22T17:31:23.003Z,27.93
2022-10-22T17:33:52.952Z,25.17
2022-10-22T17:36:23.022Z,24.77
2022-10-22T17:38:52.688Z,26.80
2022-10-22T17:41:22.433Z,24.70
2022-10-22T17:43:50.763Z,25.50
2022-10-22T17:46:21.740Z,23.87
2022-10-22T17:48:53.619Z,27.00
2022-10-22T17:51:22.531Z,25.87
2022-10-22T17:53:51.305Z,23.03
2022-10-22T17:56:21.523Z,28.70
2022-10-22T17:58:49.876Z,23.93
2022-10-22T18:01:21.315Z,73.27
2022-10-22T18:03:49.957Z,148.83
2022-10-22T18:06:17.902Z,101.23
2022-10-22T18:08:45.961Z,83.77
2022-10-22T18:11:17.177Z,66.53
2022-10-22T18:13:45.025Z,60.20
2022-10-22T18:16:13.613Z,30.30
2022-10-22T18:18:42.785Z,42.83
2022-10-22T18:21:10.613Z,41.57
2022-10-22T18:23:38.466Z,51.07
2022-10-22T18:26:06.786Z,49.80
2022-10-22T18:28:34.857Z,47.47
2022-10-22T18:31:07.091Z,52.50
2022-10-22T18:33:35.831Z,48.17
2022-10-22T18:36:07.766Z,42.20
2022-10-22T18:38:35.715Z,45.20
2022-10-22T18:41:03.645Z,46.83
2022-10-22T18:43:31.474Z,46.90
2022-10-22T18:45:59.324Z,45.13
2022-10-22T18:48:27.170Z,39.20
2022-10-22T18:51:01.129Z,35.40
2022-10-22T18:53:30.511Z,34.90
2022-10-22T18:55:58.552Z,34.80
2022-10-22T18:58:26.401Z,31.50
2022-10-22T19:00:54.293Z,29.00
2022-10-22T19:03:22.368Z,28.20
2022-10-22T19:05:51.852Z,27.57
2022-10-22T19:08:19.756Z,27.87
2022-10-22T19:10:50.126Z,27.63
2022-10-22T19:13:21.132Z,27.77
2022-10-22T19:15:49.184Z,27.97
2022-10-22T19:18:17.037Z,26.87
2022-10-22T19:20:48.270Z,27.37
2022-10-22T19:23:19.963Z,27.77
2022-10-22T19:25:50.055Z,28.67
2022-10-22T19:28:17.934Z,28.13
2022-10-22T19:30:47.654Z,27.23
2022-10-22T19:33:16.133Z,29.50
2022-10-22T19:35:44.200Z,29.83
2022-10-22T19:38:12.037Z,28.83
2022-10-22T19:40:42.254Z,27.23
2022-10-22T19:43:12.310Z,26.50
2022-10-22T19:45:41.871Z,27.93
2022-10-22T19:48:09.721Z,28.03
2022-10-22T19:50:37.633Z,26.07
2022-10-22T19:53:05.831Z,27.57
2022-10-22T19:55:34.132Z,29.43
2022-10-22T19:58:01.972Z,29.70
2022-10-22T20:00:32.158Z,30.37
2022-10-22T20:03:00.085Z,28.03
2022-10-22T20:05:27.909Z,29.40
2022-10-22T20:07:55.764Z,29.93
2022-10-22T20:10:24.194Z,28.60
2022-10-22T20:12:52.976Z,32.97
2022-10-22T20:15:21.562Z,33.50
2022-10-22T20:17:50.757Z,34.97
2022-10-22T20:20:20.105Z,36.73
2022-10-22T20:22:49.851Z,38.20
2022-10-22T20:25:17.848Z,40.27
2022-10-22T20:27:45.672Z,40.33
2022-10-22T20:30:18.162Z,39.03
2022-10-22T20:32:46.040Z,36.93
2022-10-22T20:35:16.255Z,40.10
2022-10-22T20:37:44.123Z,41.13
2022-10-22T20:40:12.507Z,38.50
2022-10-22T20:42:40.528Z,38.30
2022-10-22T20:45:09.857Z,42.73
2022-10-22T20:47:50.919Z,44.13
2022-10-22T20:50:24.190Z,54.33
2022-10-22T20:52:52.052Z,50.33
2022-10-22T20:55:19.975Z,49.30
2022-10-22T20:57:48.058Z,45.23
2022-10-22T21:00:16.361Z,44.63
2022-10-22T21:02:44.280Z,42.47
2022-10-22T21:05:12.131Z,55.43
2022-10-22T21:07:41.590Z,39.43
2022-10-22T21:10:09.882Z,41.00
2022-10-22T21:12:41.815Z,38.17
2022-10-22T21:15:12.663Z,40.87
2022-10-22T21:17:40.794Z,38.60
2022-10-22T21:22:43.631Z,37.33
2022-10-22T21:25:11.780Z,36.10
2022-10-22T21:27:39.652Z,33.67
2022-10-22T21:30:08.527Z,33.20
2022-10-22T21:32:36.386Z,44.77
2022-10-22T21:35:04.315Z,35.77
2022-10-22T21:37:35.066Z,47.03
2022-10-22T21:40:05.189Z,47.27
2022-10-22T21:42:33.029Z,49.40
2022-10-22T21:45:00.961Z,54.47
2022-10-22T21:47:28.884Z,55.07
2022-10-22T21:49:56.749Z,63.03
2022-10-22T21:52:24.669Z,71.87
2022-10-22T21:54:52.524Z,79.07
2022-10-22T21:57:21.719Z,79.27
2022-10-22T21:59:49.556Z,67.73
2022-10-22T22:02:17.435Z,73.33
2022-10-22T22:04:45.448Z,69.77
2022-10-22T22:07:13.284Z,68.97
2022-10-22T22:09:41.277Z,78.53
2022-10-22T22:12:09.455Z,76.30
2022-10-22T22:14:38.669Z,77.63
2022-10-22T22:17:06.527Z,83.77
2022-10-22T22:19:34.401Z,84.87
2022-10-22T22:22:02.465Z,57.80
2022-10-22T22:24:30.424Z,61.30
2022-10-22T22:26:58.280Z,55.77
2022-10-22T22:29:26.154Z,61.73
2022-10-22T22:31:55.556Z,59.97
2022-10-22T22:34:23.386Z,70.23
2022-10-22T22:36:51.308Z,66.13
2022-10-22T22:39:21.705Z,65.07
2022-10-22T22:41:49.584Z,75.57
2022-10-22T22:44:17.795Z,74.77
2022-10-22T22:46:45.758Z,72.27
2022-10-22T22:49:15.161Z,72.27
2022-10-22T22:51:43.966Z,67.60
2022-10-22T22:54:12.428Z,65.63
2022-10-22T22:56:40.978Z,62.73
2022-10-22T22:59:08.873Z,61.03
2022-10-22T23:01:38.369Z,64.60
2022-10-22T23:04:08.472Z,68.13
2022-10-22T23:06:38.526Z,62.37
2022-10-22T23:09:07.783Z,62.53
2022-10-22T23:11:36.190Z,62.60
2022-10-22T23:14:05.949Z,64.43
2022-10-22T23:16:36.666Z,59.53
2022-10-22T23:19:05.698Z,64.07
2022-10-22T23:21:35.908Z,62.47
2022-10-22T23:24:08.794Z,61.97
2022-10-22T23:26:39.544Z,61.57
2022-10-22T23:29:09.405Z,59.20
2022-10-22T23:31:37.256Z,60.63
2022-10-22T23:34:05.176Z,57.17
2022-10-22T23:36:34.409Z,57.20
2022-10-22T23:39:05.793Z,57.03
2022-10-22T23:41:33.822Z,58.23
2022-10-22T23:44:01.988Z,56.83
2022-10-22T23:46:29.852Z,57.37
2022-10-22T23:48:57.696Z,52.47
2022-10-22T23:51:25.676Z,48.53
2022-10-22T23:53:57.839Z,50.87
2022-10-22T23:56:27.601Z,50.23
2022-10-22T23:58:56.570Z,45.83
